Time;durP1;ratioP1;P1;durP2;ratioP2;P2;SDS_P1;SDS_P2;PMS_P1;PMS_P2;Temp;Humidity;BMP_temperature;BMP_pressure;BME280_temperature;BME280_humidity;BME280_pressure;Samples;Min_cycle;Max_cycle;Signal;HPM_P1;HPM_P2
2023/12/27 00:00:45;;;;;;;2.72;2.00;;;;;;;3.96;100.00;102039.69;4918216;29;20099;-83
2023/12/27 00:03:13;;;;;;;4.03;2.10;;;;;;;3.95;100.00;102040.50;4917496;29;20447;-83
2023/12/27 00:05:39;;;;;;;3.95;2.00;;;;;;;3.95;100.00;102037.94;4918215;29;20035;-82
2023/12/27 00:08:05;;;;;;;3.65;2.20;;;;;;;3.89;100.00;102025.75;4918279;29;20042;-83
2023/12/27 00:10:30;;;;;;;5.85;2.53;;;;;;;3.81;100.00;102022.09;4917299;29;20548;-83
2023/12/27 00:12:56;;;;;;;3.30;2.27;;;;;;;3.76;100.00;102016.81;4917834;29;20497;-83
2023/12/27 00:15:27;;;;;;;2.75;2.30;;;;;;;3.74;100.00;102015.03;4918033;29;20080;-83
2023/12/27 00:17:52;;;;;;;3.60;2.30;;;;;;;3.74;100.00;102022.72;4916929;29;20115;-83
2023/12/27 00:20:18;;;;;;;2.70;2.30;;;;;;;3.65;100.00;102001.09;4932662;29;20142;-83
2023/12/27 00:22:44;;;;;;;2.63;2.00;;;;;;;3.74;100.00;102023.59;4936591;29;20498;-83
2023/12/27 00:25:09;;;;;;;2.03;1.80;;;;;;;3.74;100.00;102017.59;4929879;29;20043;-83
2023/12/27 00:27:34;;;;;;;3.55;2.15;;;;;;;3.73;100.00;102011.56;4917276;29;20028;-83
2023/12/27 00:29:59;;;;;;;3.67;2.20;;;;;;;3.75;100.00;102027.03;4926882;29;20023;-83
2023/12/27 00:32:25;;;;;;;3.97;2.40;;;;;;;3.69;100.00;102015.75;4936262;29;20031;-83
2023/12/27 00:34:50;;;;;;;2.78;2.10;;;;;;;3.73;100.00;102020.97;4936103;29;20644;-83
2023/12/27 00:37:15;;;;;;;3.67;2.35;;;;;;;3.70;100.00;102024.34;4936892;29;20046;-83
2023/12/27 00:39:41;;;;;;;3.80;1.92;;;;;;;3.69;100.00;102018.31;4935473;29;20039;-83
2023/12/27 00:42:07;;;;;;;3.35;2.22;;;;;;;3.69;100.00;102012.31;4956270;28;20167;-83
2023/12/27 00:44:32;;;;;;;4.60;2.15;;;;;;;3.62;100.00;102005.22;4955486;29;20035;-83
2023/12/27 00:46:57;;;;;;;2.13;1.90;;;;;;;3.66;100.00;102007.06;4949533;29;20024;-83
2023/12/27 00:49:23;;;;;;;2.90;2.00;;;;;;;3.68;100.00;102008.88;4936232;29;20028;-83
2023/12/27 00:51:48;;;;;;;2.38;1.90;;;;;;;3.69;100.00;102010.59;4936131;29;20032;-83
2023/12/27 00:54:13;;;;;;;2.28;2.00;;;;;;;3.69;100.00;102009.75;4935836;29;20027;-83
2023/12/27 00:56:39;;;;;;;2.90;2.20;;;;;;;3.71;100.00;102011.53;4935844;29;20536;-83
2023/12/27 00:59:04;;;;;;;5.72;2.40;;;;;;;3.71;100.00;102014.09;4936293;29;20023;-83
2023/12/27 01:01:30;;;;;;;4.47;2.40;;;;;;;3.77;100.00;102020.28;4935461;29;20031;-83
2023/12/27 01:03:56;;;;;;;3.17;2.40;;;;;;;3.74;100.00;102015.88;4936248;29;20117;-83
2023/12/27 01:06:24;;;;;;;3.67;2.40;;;;;;;3.76;100.00;102013.38;4935885;29;20035;-83
2023/12/27 01:08:49;;;;;;;4.38;2.60;;;;;;;3.81;100.00;102011.81;4936157;29;20135;-83
2023/12/27 01:11:14;;;;;;;4.90;2.75;;;;;;;3.81;100.00;102011.81;4935744;29;20032;-83
2023/12/27 01:13:40;;;;;;;3.65;2.70;;;;;;;3.76;100.00;102000.56;4946688;29;20392;-83
2023/12/27 01:16:08;;;;;;;3.78;2.35;;;;;;;3.73;100.00;101993.59;4954973;29;20514;-83
2023/12/27 01:18:33;;;;;;;4.15;2.28;;;;;;;3.68;100.00;101997.72;4955155;29;20023;-83
2023/12/27 01:20:59;;;;;;;3.38;2.25;;;;;;;3.76;100.00;102003.97;4954713;29;20023;-83
2023/12/27 01:23:24;;;;;;;4.80;2.50;;;;;;;3.70;100.00;101990.97;4952127;29;20116;-83
2023/12/27 01:25:49;;;;;;;4.03;2.33;;;;;;;3.65;100.00;101984.78;4935973;29;20024;-83
2023/12/27 01:28:15;;;;;;;5.03;2.72;;;;;;;3.65;100.00;101989.94;4935423;29;20095;-84
2023/12/27 01:30:43;;;;;;;4.45;2.58;;;;;;;3.64;100.00;101983.94;4935892;29;20524;-83
2023/12/27 01:33:08;;;;;;;3.35;2.55;;;;;;;3.62;100.00;101977.88;4936126;29;20055;-83
2023/12/27 01:35:33;;;;;;;3.88;2.45;;;;;;;3.60;100.00;101983.78;4935039;29;20101;-83
2023/12/27 01:37:59;;;;;;;3.33;2.40;;;;;;;3.62;100.00;101982.13;4935867;29;20378;-83
2023/12/27 01:40:24;;;;;;;5.43;2.45;;;;;;;3.57;100.00;101987.09;4937226;29;20031;-83
2023/12/27 01:42:49;;;;;;;4.63;2.53;;;;;;;3.59;100.00;101994.88;4954007;29;20039;-83
2023/12/27 01:45:15;;;;;;;3.72;2.50;;;;;;;3.61;100.00;101998.34;4955218;29;20457;-84
2023/12/27 01:47:42;;;;;;;3.75;2.60;;;;;;;3.58;100.00;102006.81;4954523;29;20058;-83
2023/12/27 01:50:10;;;;;;;;;;;;;;;3.57;100.00;102004.22;4954651;29;20035;-83
2023/12/27 01:52:39;;;;;;;3.90;2.40;;;;;;;3.51;100.00;101994.63;4954936;29;19914;-83
2023/12/27 01:55:07;;;;;;;4.47;2.50;;;;;;;3.43;100.00;101978.97;4947771;29;20035;-83
2023/12/27 01:57:32;;;;;;;4.85;2.50;;;;;;;3.42;100.00;101982.34;4954014;29;20032;-83
2023/12/27 01:59:58;;;;;;;5.22;2.67;;;;;;;3.49;100.00;101997.13;4955153;29;20031;-83
2023/12/27 02:02:26;;;;;;;5.45;3.08;;;;;;;3.48;100.00;101995.41;4955163;29;20062;-83
2023/12/27 02:04:52;;;;;;;4.07;2.88;;;;;;;3.50;100.00;101993.72;4953787;29;20074;-83
2023/12/27 02:07:18;;;;;;;5.82;2.90;;;;;;;3.48;100.00;101990.28;4954751;29;20028;-83
2023/12/27 02:09:43;;;;;;;4.38;2.70;;;;;;;3.51;100.00;101990.34;4937257;29;20536;-82
2023/12/27 02:12:09;;;;;;;4.38;2.70;;;;;;;3.52;100.00;101986.97;4935414;29;20024;-83
2023/12/27 02:14:34;;;;;;;5.53;2.70;;;;;;;3.48;100.00;101982.56;4935210;29;20020;-83
2023/12/27 02:17:05;;;;;;;4.20;2.90;;;;;;;3.55;100.00;101992.19;4935197;29;20031;-83
2023/12/27 02:19:30;;;;;;;5.38;2.70;;;;;;;3.57;100.00;101986.25;4935562;29;20023;-83
2023/12/27 02:21:58;;;;;;;3.67;2.60;;;;;;;3.55;100.00;101981.94;4936249;29;20058;-83
2023/12/27 02:24:31;;;;;;;5.65;2.75;;;;;;;3.59;100.00;101982.91;4938715;29;20027;-83
2023/12/27 02:26:59;;;;;;;3.45;2.60;;;;;;;3.60;100.00;101981.22;4939379;29;20040;-83
2023/12/27 02:29:25;;;;;;;3.80;2.50;;;;;;;3.61;100.00;101975.22;4939274;29;20385;-83
2023/12/27 02:31:50;;;;;;;3.72;2.53;;;;;;;3.63;100.00;101982.19;4937833;29;20039;-84
2023/12/27 02:34:15;;;;;;;3.20;2.40;;;;;;;3.64;100.00;101980.47;4968654;28;20031;-83
2023/12/27 02:36:40;;;;;;;4.53;2.70;;;;;;;3.62;100.00;101967.59;4961859;28;20110;-83
2023/12/27 02:39:06;;;;;;;4.13;2.90;;;;;;;3.53;100.00;101960.47;4937377;29;20173;-83
2023/12/27 02:41:32;;;;;;;5.18;2.58;;;;;;;3.62;100.00;101966.72;4938702;29;20032;-83
2023/12/27 02:43:57;;;;;;;4.20;2.60;;;;;;;3.58;100.00;101963.19;4938621;29;20079;-83
2023/12/27 02:46:22;;;;;;;4.07;2.70;;;;;;;3.60;100.00;101965.81;4937764;29;20039;-83
2023/12/27 02:48:50;;;;;;;5.80;2.30;;;;;;;3.61;100.00;101964.97;4938491;29;20032;-84
2023/12/27 02:51:16;;;;;;;4.00;2.50;;;;;;;3.60;100.00;101950.41;4938504;29;20039;-83
2023/12/27 02:53:41;;;;;;;3.50;2.40;;;;;;;3.59;100.00;101943.53;4937329;29;20027;-83
2023/12/27 02:56:08;;;;;;;6.40;2.75;;;;;;;3.60;100.00;101946.13;4939670;29;20505;-83
2023/12/27 02:58:33;;;;;;;5.40;2.70;;;;;;;3.59;100.00;101944.41;4938176;29;20463;-83
2023/12/27 03:00:58;;;;;;;6.03;3.08;;;;;;;3.52;100.00;101922.78;4937762;29;20035;-83
2023/12/27 03:03:24;;;;;;;6.03;2.70;;;;;;;3.60;100.00;101924.75;4939571;29;20023;-83
2023/12/27 03:05:49;;;;;;;3.75;2.38;;;;;;;3.60;100.00;101928.16;4939175;29;20032;-83
2023/12/27 03:08:14;;;;;;;3.53;2.40;;;;;;;3.64;100.00;101927.44;4957690;29;20020;-83
2023/12/27 03:10:40;;;;;;;4.93;2.35;;;;;;;3.61;100.00;101922.22;4957305;29;20028;-83
2023/12/27 03:13:06;;;;;;;3.75;2.30;;;;;;;3.67;100.00;101926.66;4956822;29;20034;-83
2023/12/27 03:15:31;;;;;;;2.63;2.13;;;;;;;3.66;100.00;101925.78;4957294;29;20086;-83
2023/12/27 03:17:56;;;;;;;3.55;2.25;;;;;;;3.62;100.00;101913.69;4957422;29;20098;-83
2023/12/27 03:20:22;;;;;;;6.18;3.10;;;;;;;3.62;100.00;101913.69;4956525;29;20111;-83
2023/12/27 03:22:47;;;;;;;7.93;3.40;;;;;;;3.63;100.00;101907.72;4957529;29;20019;-83
2023/12/27 03:25:12;;;;;;;7.53;3.20;;;;;;;3.59;100.00;101903.31;4957504;29;20059;-83
2023/12/27 03:27:37;;;;;;;12.07;4.55;;;;;;;3.55;100.00;101897.22;4956284;29;20027;-83
2023/12/27 03:30:03;;;;;;;13.02;4.80;;;;;;;3.46;100.00;101876.41;4957555;29;20110;-83
2023/12/27 03:32:29;;;;;;;15.87;6.00;;;;;;;3.52;100.00;101886.00;4957160;29;20027;-83
2023/12/27 03:34:54;;;;;;;14.73;5.53;;;;;;;3.53;100.00;101891.16;4954937;28;20030;-83
2023/12/27 03:37:22;;;;;;;11.70;4.88;;;;;;;3.53;100.00;101885.19;4956818;29;20383;-83
2023/12/27 03:39:51;;;;;;;8.65;4.32;;;;;;;3.56;100.00;101890.38;4956641;29;20130;-83
2023/12/27 03:44:45;;;;;;;6.90;3.70;;;;;;;3.59;100.00;101876.78;4981780;23;20401;-83
2023/12/27 03:47:13;;;;;;;7.25;3.28;;;;;;;3.62;100.00;101876.88;4976222;28;20038;-83
2023/12/27 03:49:39;;;;;;;5.68;2.95;;;;;;;3.63;100.00;101868.34;4971990;28;20034;-83
2023/12/27 03:52:04;;;;;;;7.35;3.33;;;;;;;3.61;100.00;101852.00;4975588;28;20361;-83
2023/12/27 03:54:30;;;;;;;6.67;3.10;;;;;;;3.59;100.00;101848.56;4976288;28;20022;-83
2023/12/27 03:56:55;;;;;;;6.63;3.40;;;;;;;3.59;100.00;101841.72;4975408;28;20118;-83
2023/12/27 03:59:20;;;;;;;7.38;3.40;;;;;;;3.59;100.00;101841.72;4975947;28;20082;-83
2023/12/27 04:01:46;;;;;;;7.43;3.20;;;;;;;3.53;100.00;101836.41;4975592;28;20109;-83
2023/12/27 04:04:13;;;;;;;5.53;3.20;;;;;;;3.61;100.00;101836.59;4974641;28;20472;-83
2023/12/27 04:06:38;;;;;;;5.97;3.00;;;;;;;3.61;100.00;101834.03;4975808;28;20030;-83
2023/12/27 04:09:04;;;;;;;5.60;2.95;;;;;;;3.60;100.00;101828.06;4975667;28;20031;-83
2023/12/27 04:11:29;;;;;;;4.93;2.65;;;;;;;3.60;100.00;101827.19;4975277;28;20095;-83
2023/12/27 04:13:54;;;;;;;3.95;2.80;;;;;;;3.62;100.00;101830.66;4975620;28;20049;-83
2023/12/27 04:16:19;;;;;;;5.27;2.60;;;;;;;3.64;100.00;101818.75;4975133;28;20027;-83
2023/12/27 04:18:45;;;;;;;7.28;3.75;;;;;;;3.65;100.00;101811.09;4975237;28;20031;-83
2023/12/27 04:21:10;;;;;;;7.25;3.92;;;;;;;3.65;100.00;101810.22;4975604;28;20027;-83
2023/12/27 04:23:35;;;;;;;11.88;5.15;;;;;;;3.69;100.00;101812.06;4974637;28;20023;-83
2023/12/27 04:26:01;;;;;;;9.68;4.28;;;;;;;3.68;100.00;101812.88;4975592;28;20030;-83
2023/12/27 04:28:26;;;;;;;7.95;3.80;;;;;;;3.70;100.00;101813.78;4975707;28;20023;-83
2023/12/27 04:30:51;;;;;;;10.15;4.30;;;;;;;3.69;100.00;101807.78;4973687;28;20483;-83
2023/12/27 04:33:16;;;;;;;11.07;4.82;;;;;;;3.72;100.00;101801.84;4981292;23;20054;-83
2023/12/27 04:35:43;;;;;;;10.05;4.53;;;;;;;3.71;100.00;101807.84;4974950;28;20365;-83
2023/12/27 04:38:13;;;;;;;11.18;4.60;;;;;;;3.75;100.00;101804.50;4974605;28;20041;-83
2023/12/27 04:40:38;;;;;;;11.23;4.15;;;;;;;3.73;100.00;101800.16;4975074;28;20026;-83
2023/12/27 04:43:04;;;;;;;8.52;4.13;;;;;;;3.78;100.00;101811.41;4975484;28;20029;-83
2023/12/27 04:45:29;;;;;;;9.73;4.10;;;;;;;3.80;100.00;101810.66;4973818;28;20033;-83
2023/12/27 04:47:54;;;;;;;8.30;3.70;;;;;;;3.81;100.00;101804.69;4975268;28;20422;-84
2023/12/27 04:50:19;;;;;;;9.32;3.67;;;;;;;3.82;100.00;101797.84;4975318;28;20117;-83
2023/12/27 04:52:45;;;;;;;6.65;3.13;;;;;;;3.87;100.00;101798.88;4973799;28;20506;-83
2023/12/27 04:55:10;;;;;;;6.05;3.10;;;;;;;3.90;100.00;101806.63;4975100;28;20018;-83
2023/12/27 04:57:36;;;;;;;8.43;3.42;;;;;;;3.95;100.00;101802.50;4974521;28;20042;-83
2023/12/27 05:00:03;;;;;;;8.60;3.57;;;;;;;3.98;100.00;101794.00;4990437;28;20258;-83
2023/12/27 05:02:31;;;;;;;7.63;3.40;;;;;;;3.99;100.00;101780.34;4994218;28;20081;-83
2023/12/27 05:04:56;;;;;;;6.93;3.53;;;;;;;4.01;100.00;101782.09;4994112;28;20041;-83
2023/12/27 05:07:21;;;;;;;8.70;3.72;;;;;;;4.05;100.00;101775.38;4993665;28;20026;-83
2023/12/27 05:09:47;;;;;;;6.47;3.03;;;;;;;4.05;100.00;101769.34;4993871;28;20022;-83
2023/12/27 05:12:12;;;;;;;8.55;3.55;;;;;;;4.05;100.00;101765.09;4994470;28;20105;-83
2023/12/27 05:14:37;;;;;;;6.93;3.35;;;;;;;4.11;100.00;101762.69;4993315;28;20054;-83
2023/12/27 05:17:04;;;;;;;7.83;3.20;;;;;;;4.09;100.00;101761.78;4994083;28;20026;-83
2023/12/27 05:19:29;;;;;;;9.75;3.80;;;;;;;4.17;100.00;101757.69;4993350;28;20023;-83
2023/12/27 05:21:55;;;;;;;12.90;4.40;;;;;;;4.09;100.00;101751.50;4993626;28;20073;-83
2023/12/27 05:24:20;;;;;;;9.02;3.85;;;;;;;4.13;100.00;101752.44;4994299;28;20027;-83
2023/12/27 05:29:31;;;;;;;11.60;4.10;;;;;;;4.17;100.00;101749.97;4993582;28;20399;-83
2023/12/27 05:31:56;;;;;;;7.07;3.75;;;;;;;4.16;100.00;101748.28;4995137;28;20036;-83
2023/12/27 05:34:21;;;;;;;8.77;3.63;;;;;;;4.18;100.00;101751.72;5013193;28;20022;-84
2023/12/27 05:36:46;;;;;;;7.40;3.60;;;;;;;4.20;100.00;101753.47;5013582;28;20464;-84
2023/12/27 05:39:15;;;;;;;6.70;3.00;;;;;;;4.24;100.00;101757.88;5013063;28;20475;-85
2023/12/27 05:41:40;;;;;;;5.25;3.13;;;;;;;4.25;100.00;101749.34;5012732;28;20026;-85
2023/12/27 05:44:05;;;;;;;7.97;3.15;;;;;;;4.21;100.00;101738.09;5013491;28;20026;-84
2023/12/27 05:46:35;;;;;;;10.73;3.93;;;;;;;4.25;100.00;101734.78;5013471;28;20022;-85
2023/12/27 05:49:00;;;;;;;12.65;4.40;;;;;;;4.26;100.00;101730.50;5012397;28;20482;-84
2023/12/27 05:51:25;;;;;;;9.52;4.18;;;;;;;4.21;100.00;101722.69;5013330;28;20056;-84
2023/12/27 05:53:50;;;;;;;9.03;3.70;;;;;;;4.25;100.00;101723.63;5013163;28;20076;-85
2023/12/27 05:56:19;;;;;;;11.05;4.00;;;;;;;4.27;100.00;101721.97;4994071;28;20026;-85
2023/12/27 05:58:44;;;;;;;8.55;3.83;;;;;;;4.30;100.00;101716.91;4997237;28;20391;-85
2023/12/27 06:01:10;;;;;;;11.00;4.20;;;;;;;4.28;100.00;101705.69;4998030;28;20058;-85
2023/12/27 06:03:35;;;;;;;10.65;3.60;;;;;;;4.28;100.00;101708.28;4996665;28;20390;-85
2023/12/27 06:06:03;;;;;;;10.25;3.53;;;;;;;4.33;100.00;101704.97;4997433;28;20117;-85
2023/12/27 06:08:29;;;;;;;12.68;4.32;;;;;;;4.29;100.00;101698.06;4997549;28;20460;-84
2023/12/27 06:10:54;;;;;;;10.23;3.63;;;;;;;4.34;100.00;101700.72;4996243;28;20034;-84
2023/12/27 06:13:19;;;;;;;8.48;3.45;;;;;;;4.36;100.00;101696.50;4996955;28;20053;-85
2023/12/27 06:15:45;;;;;;;7.47;3.42;;;;;;;4.44;100.00;101704.41;4996796;28;20026;-84
2023/12/27 06:18:10;;;;;;;11.70;3.90;;;;;;;4.39;100.00;101685.41;4997131;28;20022;-84
2023/12/27 06:20:35;;;;;;;8.17;3.70;;;;;;;4.40;100.00;101682.00;4997020;28;20364;-84
2023/12/27 06:23:04;;;;;;;8.15;3.20;;;;;;;4.40;100.00;101682.00;5004065;28;20482;-84
2023/12/27 06:25:29;;;;;;;8.38;3.25;;;;;;;4.43;100.00;101685.53;5016940;28;20386;-84
2023/12/27 06:27:55;;;;;;;10.35;3.33;;;;;;;4.47;100.00;101694.16;5016476;28;20026;-84
2023/12/27 06:30:20;;;;;;;9.53;3.37;;;;;;;4.45;100.00;101673.56;5015739;28;20022;-83
2023/12/27 06:32:45;;;;;;;8.65;3.38;;;;;;;4.47;100.00;101669.34;5016539;28;20042;-84
2023/12/27 06:35:21;;;;;;;9.52;3.60;;;;;;;4.50;100.00;101655.69;5016960;28;20034;-84
2023/12/27 06:37:55;;;;;;;9.75;3.80;;;;;;;4.46;100.00;101639.34;5015665;28;20389;-83
2023/12/27 06:40:27;;;;;;;9.30;3.70;;;;;;;4.52;100.00;101646.31;4998081;28;20454;-83
2023/12/27 06:42:58;;;;;;;10.13;3.63;;;;;;;4.45;100.00;101640.16;4996348;28;20352;-84
2023/12/27 06:45:44;;;;;;;5.05;3.05;;;;;;;4.53;100.00;101642.03;4996004;28;20026;-84
2023/12/27 06:48:10;;;;;;;11.57;4.13;;;;;;;4.62;100.00;101642.22;4996912;28;20022;-84
2023/12/27 06:50:35;;;;;;;7.78;3.63;;;;;;;4.62;100.00;101635.41;5000275;28;20049;-84
2023/12/27 06:53:01;;;;;;;12.67;4.30;;;;;;;4.63;100.00;101626.84;5015306;28;20026;-84
2023/12/27 06:55:29;;;;;;;11.65;4.80;;;;;;;4.64;100.00;101627.72;5015985;28;20109;-84
2023/12/27 06:57:54;;;;;;;9.98;4.20;;;;;;;4.67;100.00;101632.06;5011953;28;20037;-83
2023/12/27 07:00:20;;;;;;;10.20;4.18;;;;;;;4.69;100.00;101631.25;5011624;28;20034;-84
2023/12/27 07:02:45;;;;;;;9.55;4.40;;;;;;;4.74;100.00;101621.94;5014824;28;20394;-84
2023/12/27 07:05:12;;;;;;;8.60;3.75;;;;;;;4.74;100.00;101619.34;5015722;28;20447;-86
2023/12/27 07:07:46;;;;;;;5.95;3.67;;;;;;;4.70;100.00;101598.69;5015608;28;20032;-82
2023/12/27 07:10:29;;;;;;;9.20;4.47;;;;;;;4.75;100.00;101599.66;5014956;28;20415;-84
2023/12/27 07:12:55;;;;;;;9.52;4.80;;;;;;;4.85;100.00;101608.41;5015245;28;20109;-84
2023/12/27 07:15:20;;;;;;;8.63;4.10;;;;;;;4.89;100.00;101617.94;5015439;28;20117;-84
2023/12/27 07:17:46;;;;;;;6.63;3.73;;;;;;;4.88;100.00;101606.81;5015891;28;20022;-84
2023/12/27 07:20:12;;;;;;;6.80;4.00;;;;;;;4.87;100.00;101609.31;5015704;28;20026;-84
2023/12/27 07:22:37;;;;;;;8.38;4.00;;;;;;;4.94;100.00;101604.34;5010487;28;20026;-85
2023/12/27 07:25:03;;;;;;;7.82;4.00;;;;;;;5.01;100.00;101607.06;4995604;28;20030;-84
2023/12/27 07:27:29;;;;;;;7.03;3.80;;;;;;;5.02;100.00;101604.50;5012240;28;20038;-84
2023/12/27 07:29:54;;;;;;;6.63;3.90;;;;;;;5.08;100.00;101608.91;5015163;28;20078;-84
2023/12/27 07:32:20;;;;;;;5.30;3.28;;;;;;;5.10;100.00;101602.09;5014873;28;20065;-85
2023/12/27 07:34:45;;;;;;;6.03;3.60;;;;;;;5.13;100.00;101598.69;5008707;28;20057;-84
2023/12/27 07:37:11;;;;;;;5.73;3.20;;;;;;;5.12;100.00;101594.38;4999232;28;20487;-84
2023/12/27 07:39:36;;;;;;;7.32;4.03;;;;;;;5.21;100.00;101594.56;4996379;28;20030;-84
2023/12/27 07:42:02;;;;;;;6.55;3.90;;;;;;;5.24;100.00;101608.34;4994798;28;20377;-84
2023/12/27 07:44:36;;;;;;;5.93;3.63;;;;;;;5.28;100.00;101606.72;4995719;28;20026;-84
2023/12/27 07:47:04;;;;;;;6.93;4.20;;;;;;;5.24;100.00;101584.31;4995445;28;20022;-85
2023/12/27 07:49:29;;;;;;;9.98;4.88;;;;;;;5.34;100.00;101591.38;4995275;28;20023;-84
2023/12/27 07:51:54;;;;;;;8.63;4.63;;;;;;;5.24;100.00;101592.91;4995059;28;20541;-85
2023/12/27 07:54:31;;;;;;;7.53;4.33;;;;;;;5.28;100.00;101588.72;4994972;28;20084;-84
2023/12/27 07:56:57;;;;;;;7.72;4.65;;;;;;;5.41;100.00;101595.78;4995660;28;20066;-83
2023/12/27 07:59:24;;;;;;;8.82;5.03;;;;;;;5.44;100.00;101594.13;4987633;28;20035;-86
2023/12/27 08:01:49;;;;;;;;;;;;;;;5.44;100.00;101597.56;4994168;28;20029;-83
2023/12/27 08:04:15;;;;;;;7.93;4.23;;;;;;;5.35;100.00;101577.66;4996378;28;19918;-84
2023/12/27 08:06:40;;;;;;;9.00;4.70;;;;;;;5.45;100.00;101590.69;4995145;28;20022;-84
2023/12/27 08:09:06;;;;;;;7.18;4.32;;;;;;;5.50;100.00;101582.22;4993869;28;20359;-83
2023/12/27 08:11:40;;;;;;;8.30;4.93;;;;;;;5.52;100.00;101590.84;4994952;28;20117;-86
2023/12/27 08:14:14;;;;;;;10.40;5.55;;;;;;;5.44;100.00;101565.78;4994535;28;20030;-87
2023/12/27 08:16:43;;;;;;;7.97;4.30;;;;;;;5.53;100.00;101576.25;4994065;28;20027;-86
2023/12/27 08:19:10;;;;;;;6.35;4.03;;;;;;;5.55;100.00;101569.44;4994227;28;20510;-86
2023/12/27 08:21:35;;;;;;;8.65;4.80;;;;;;;5.67;100.00;101582.50;4993567;28;20045;-86
2023/12/27 08:24:00;;;;;;;8.20;4.53;;;;;;;5.64;100.00;101569.56;4994058;28;20018;-86
2023/12/27 08:26:41;;;;;;;7.03;4.13;;;;;;;5.61;100.00;101548.06;4994398;28;20037;-87
2023/12/27 08:29:15;;;;;;;6.97;4.13;;;;;;;5.68;100.00;101548.19;4998345;28;20022;-86
2023/12/27 08:31:42;;;;;;;6.18;3.72;;;;;;;5.69;100.00;101534.47;4991558;28;20120;-91
2023/12/27 08:34:22;;;;;;;5.53;3.63;;;;;;;5.81;100.00;101538.09;4995455;28;20039;-89
2023/12/27 08:36:48;;;;;;;7.78;4.20;;;;;;;5.85;100.00;101532.16;4994271;28;20050;-86
2023/12/27 08:39:29;;;;;;;8.45;4.63;;;;;;;5.95;100.00;101523.72;4994711;28;20038;-86
2023/12/27 08:42:15;;;;;;;9.52;4.90;;;;;;;5.83;100.00;101519.22;4995533;28;20058;-83
2023/12/27 08:45:01;;;;;;;10.57;4.80;;;;;;;5.99;100.00;101529.78;4994917;28;20030;-84
2023/12/27 08:47:27;;;;;;;6.88;3.90;;;;;;;6.04;100.00;101523.00;4994798;28;20050;-87
2023/12/27 08:49:55;;;;;;;9.63;4.77;;;;;;;6.11;100.00;101529.09;4994596;28;20360;-87
2023/12/27 08:52:29;;;;;;;8.88;5.20;;;;;;;6.16;100.00;101530.91;4994297;28;20485;-92
2023/12/27 08:55:16;;;;;;;11.23;5.03;;;;;;;6.23;100.00;101534.44;4994753;28;20085;-92
2023/12/27 09:00:13;;;;;;;8.13;4.30;;;;;;;6.26;100.00;101503.56;4974070;28;20038;-93
2023/12/27 09:02:38;;;;;;;8.10;4.30;;;;;;;6.36;100.00;101514.84;4975163;28;20147;-95
2023/12/27 09:05:05;;;;;;;8.30;4.00;;;;;;;6.38;100.00;101515.72;4980645;28;20051;-96
2023/12/27 09:07:31;;;;;;;;;;;;;;;6.42;100.00;101511.47;4988695;28;20023;-96
2023/12/27 09:09:57;;;;;;;8.07;4.07;;;;;;;6.43;100.00;101505.47;4979351;28;19914;-92
2023/12/27 09:12:22;;;;;;;7.72;4.10;;;;;;;6.47;100.00;101497.78;4998066;23;20572;-89
2023/12/27 09:14:47;;;;;;;9.37;4.77;;;;;;;6.51;100.00;101509.03;4975310;28;20055;-91
2023/12/27 09:17:15;;;;;;;9.48;4.25;;;;;;;6.55;100.00;101522.81;4976031;28;20055;-93
2023/12/27 09:19:41;;;;;;;8.55;4.65;;;;;;;6.48;100.00;101514.13;4974928;28;20034;-93
2023/12/27 09:22:09;;;;;;;8.13;4.03;;;;;;;6.53;100.00;101503.88;4970065;28;20034;-92
2023/12/27 09:24:35;;;;;;;7.32;4.00;;;;;;;6.54;100.00;101487.56;4975907;28;20110;-92
2023/12/27 09:27:00;;;;;;;7.28;3.70;;;;;;;6.50;100.00;101484.09;4974629;28;20031;-83
2023/12/27 09:29:26;;;;;;;7.37;3.97;;;;;;;6.58;100.00;101485.03;5016260;23;20047;-89
2023/12/27 09:31:51;;;;;;;7.07;4.03;;;;;;;6.57;100.00;101492.75;4955327;29;20033;-89
2023/12/27 09:34:16;;;;;;;6.47;3.80;;;;;;;6.59;100.00;101496.19;4949507;29;20107;-89
2023/12/27 09:36:45;;;;;;;7.40;3.72;;;;;;;6.60;100.00;101487.63;4954101;29;20051;-89
2023/12/27 09:39:12;;;;;;;7.47;3.63;;;;;;;6.58;100.00;101474.72;4955948;29;20469;-89
2023/12/27 09:41:37;;;;;;;6.95;3.72;;;;;;;6.67;100.00;101481.69;4954798;29;20031;-84
2023/12/27 09:44:06;;;;;;;8.40;4.53;;;;;;;6.72;100.00;101476.59;4952656;29;20027;-87
2023/12/27 09:46:33;;;;;;;10.57;4.65;;;;;;;6.73;100.00;101478.31;4954795;29;20087;-85
2023/12/27 09:48:58;;;;;;;7.55;4.20;;;;;;;6.67;100.00;101467.91;4953811;29;20631;-84
2023/12/27 09:51:24;;;;;;;7.90;4.13;;;;;;;6.61;100.00;101455.81;4954292;29;20114;-85
2023/12/27 09:53:51;;;;;;;5.00;3.40;;;;;;;6.67;100.00;101470.50;4953746;29;20015;-87
2023/12/27 09:56:18;;;;;;;6.93;3.83;;;;;;;6.71;100.00;101469.69;4954914;29;20593;-86
2023/12/27 09:58:45;;;;;;;7.05;3.80;;;;;;;6.75;100.00;101474.06;4954433;29;20116;-86
2023/12/27 10:01:11;;;;;;;;;;;;;;;6.77;100.00;101469.75;4954747;29;20035;-87
2023/12/27 10:03:40;;;;;;;8.07;4.10;;;;;;;6.70;100.00;101455.06;4954248;29;19919;-86
2023/12/27 10:06:43;;;;;;;7.75;3.72;;;;;;;6.84;100.00;101471.56;4954112;29;20054;-86
2023/12/27 10:09:09;;;;;;;5.63;3.50;;;;;;;6.81;100.00;101474.09;4950436;29;20046;-89
2023/12/27 10:11:35;;;;;;;6.10;3.30;;;;;;;6.84;100.00;101473.25;4955130;29;20039;-89
2023/12/27 10:14:04;;;;;;;5.80;3.28;;;;;;;6.88;100.00;101465.56;4955418;29;20054;-90
2023/12/27 10:16:29;;;;;;;6.55;3.42;;;;;;;6.92;100.00;101451.00;4954411;29;20031;-85
2023/12/27 10:18:55;;;;;;;4.90;3.10;;;;;;;6.85;100.00;101437.16;4955017;29;20023;-88
2023/12/27 10:21:20;;;;;;;5.30;3.00;;;;;;;7.00;100.00;101454.50;5228080;23;20051;-86
2023/12/27 10:23:45;;;;;;;4.43;2.87;;;;;;;6.99;100.00;101467.38;4974344;28;20122;-86
2023/12/27 10:26:12;;;;;;;5.82;3.00;;;;;;;7.06;100.00;101466.59;4967544;28;20058;-78
2023/12/27 10:28:37;;;;;;;9.65;3.78;;;;;;;7.23;100.00;101457.28;4973783;28;20058;-90
2023/12/27 10:31:06;;;;;;;6.97;3.20;;;;;;;7.11;100.00;101436.53;4974732;28;20062;-91
2023/12/27 10:33:43;;;;;;;5.45;3.10;;;;;;;7.17;100.00;101430.53;4975085;28;20034;-90
2023/12/27 10:36:09;;;;;;;6.28;2.90;;;;;;;7.25;100.00;101422.00;4974734;28;20019;-94
2023/12/27 10:38:35;;;;;;;4.57;2.70;;;;;;;7.31;100.00;101428.94;4975246;28;20471;-90
2023/12/27 10:41:03;;;;;;;4.27;2.60;;;;;;;7.33;100.00;101428.94;4971412;28;20534;-91
2023/12/27 10:43:31;;;;;;;5.78;2.55;;;;;;;7.39;100.00;101418.69;4975964;28;20050;-90
2023/12/27 10:45:56;;;;;;;5.80;2.45;;;;;;;7.38;100.00;101409.19;4979280;28;20085;-92
2023/12/27 10:48:26;;;;;;;5.57;2.20;;;;;;;7.47;100.00;101409.25;4978765;28;20117;-92
2023/12/27 10:53:51;;;;;;;3.90;2.42;;;;;;;7.48;100.00;101395.50;4927134;29;20044;-94
2023/12/27 10:56:39;;;;;;;3.03;2.15;;;;;;;7.50;100.00;101403.25;4920374;29;20076;-95
2023/12/27 10:59:05;;;;;;;5.18;2.25;;;;;;;7.57;100.00;101379.19;4923169;29;20036;-94
2023/12/27 11:01:35;;;;;;;5.20;2.40;;;;;;;7.68;100.00;101393.03;4920814;29;20039;-94
2023/12/27 11:04:20;;;;;;;3.70;1.98;;;;;;;7.59;100.00;101382.66;4978899;28;20027;-94
2023/12/27 11:07:00;;;;;;;5.97;2.75;;;;;;;7.63;100.00;101374.06;4981021;28;20051;-94
2023/12/27 11:09:30;;;;;;;5.20;2.50;;;;;;;7.80;100.00;101383.63;4980823;28;20027;-94
2023/12/27 11:11:57;;;;;;;5.45;2.30;;;;;;;7.74;100.00;101343.13;4981170;28;20031;-94
2023/12/27 11:14:40;;;;;;;6.38;2.50;;;;;;;7.80;100.00;101362.94;4980910;28;20051;-94
2023/12/27 11:17:19;;;;;;;6.97;2.40;;;;;;;7.82;100.00;101372.44;4985875;28;20034;-95
2023/12/27 11:19:53;;;;;;;5.65;2.60;;;;;;;7.88;100.00;101392.28;4984959;28;20027;-94
2023/12/27 11:22:20;;;;;;;3.53;2.45;;;;;;;7.80;100.00;101352.63;4988268;28;20038;-94
2023/12/27 11:24:46;;;;;;;5.18;2.40;;;;;;;7.79;100.00;101348.31;4989521;28;20030;-92
2023/12/27 11:27:32;;;;;;;5.07;2.50;;;;;;;7.85;100.00;101361.22;4978567;28;20464;-94
2023/12/27 11:30:00;;;;;;;4.00;2.20;;;;;;;7.87;100.00;101357.81;4978592;28;20043;-87
2023/12/27 11:32:52;;;;;;;3.63;2.45;;;;;;;7.84;100.00;101347.47;4977812;28;20023;-89
2023/12/27 11:35:35;;;;;;;6.43;2.42;;;;;;;7.86;100.00;101340.59;4974925;28;20030;-88